createdAt,value
2022-12-16T00:01:45.784Z,96.95
2022-12-16T00:04:13.176Z,97.52
2022-12-16T00:06:40.051Z,97.61
2022-12-16T00:09:06.976Z,97.82
2022-12-16T00:11:34.063Z,98.01
2022-12-16T00:14:01.829Z,97.74
2022-12-16T00:16:29.225Z,97.60
2022-12-16T00:18:56.351Z,97.62
2022-12-16T00:21:28.829Z,98.05
2022-12-16T00:23:57.559Z,98.06
2022-12-16T00:26:24.916Z,97.72
2022-12-16T00:28:51.862Z,97.88
2022-12-16T00:31:19.299Z,98.38
2022-12-16T00:33:46.400Z,98.47
2022-12-16T00:36:13.662Z,98.76
2022-12-16T00:38:40.715Z,98.73
2022-12-16T00:41:08.236Z,98.70
2022-12-16T00:43:35.534Z,99.45
2022-12-16T00:46:03.044Z,99.56
2022-12-16T00:48:31.727Z,99.79
2022-12-16T00:50:58.650Z,100.00
2022-12-16T00:53:25.615Z,100.00
2022-12-16T00:56:01.538Z,100.00
2022-12-16T00:58:28.757Z,100.00
2022-12-16T01:00:55.829Z,100.00
2022-12-16T01:03:22.986Z,100.00
2022-12-16T01:05:50.068Z,100.00
2022-12-16T01:08:17.822Z,100.00
2022-12-16T01:10:51.649Z,100.00
2022-12-16T01:13:20.064Z,100.00
2022-12-16T01:15:47.372Z,100.00
2022-12-16T01:18:15.335Z,100.00
2022-12-16T01:20:42.395Z,100.00
2022-12-16T01:23:09.837Z,100.00
2022-12-16T01:25:36.996Z,99.85
2022-12-16T01:28:04.241Z,99.72
2022-12-16T01:30:31.552Z,99.61
2022-12-16T01:32:58.414Z,99.71
2022-12-16T01:38:13.350Z,99.30
2022-12-16T01:40:40.406Z,99.32
2022-12-16T01:43:13.969Z,99.23
2022-12-16T01:45:41.251Z,99.13
2022-12-16T01:48:19.180Z,99.51
2022-12-16T01:50:46.712Z,99.47
2022-12-16T01:53:14.266Z,99.39
2022-12-16T01:55:48.996Z,99.67
2022-12-16T01:58:23.945Z,99.50
2022-12-16T02:00:51.376Z,99.36
2022-12-16T02:03:18.969Z,99.36
2022-12-16T02:05:48.235Z,98.70
2022-12-16T02:08:16.234Z,99.01
2022-12-16T02:10:43.060Z,99.10
2022-12-16T02:13:26.562Z,99.06
2022-12-16T02:16:40.978Z,99.34
2022-12-16T02:19:41.466Z,99.52
2022-12-16T02:22:36.054Z,99.34
2022-12-16T02:25:09.129Z,100.00
2022-12-16T02:28:11.900Z,100.00
2022-12-16T02:30:55.797Z,100.00
2022-12-16T02:33:37.818Z,100.00
2022-12-16T02:36:08.090Z,100.00
2022-12-16T02:39:07.403Z,100.00
2022-12-16T02:41:53.289Z,100.00
2022-12-16T02:44:48.430Z,100.00
2022-12-16T02:47:15.864Z,100.00
2022-12-16T02:49:49.038Z,100.00
2022-12-16T02:52:19.918Z,100.00
2022-12-16T02:54:49.008Z,100.00
2022-12-16T02:57:28.294Z,100.00
2022-12-16T03:00:06.079Z,100.00
2022-12-16T03:02:36.538Z,100.00
2022-12-16T03:05:10.773Z,100.00
2022-12-16T03:07:41.466Z,100.00
2022-12-16T03:10:12.553Z,100.00
2022-12-16T03:12:43.697Z,100.00
2022-12-16T03:15:14.031Z,100.00
2022-12-16T03:17:42.309Z,100.00
2022-12-16T03:20:18.367Z,100.00
2022-12-16T03:22:48.540Z,100.00
2022-12-16T03:25:16.537Z,100.00
2022-12-16T03:27:57.684Z,100.00
2022-12-16T03:30:33.341Z,100.00
2022-12-16T03:33:05.383Z,100.00
2022-12-16T03:35:35.445Z,99.96
2022-12-16T03:38:06.534Z,99.65
2022-12-16T03:40:34.804Z,99.26
2022-12-16T03:43:03.416Z,99.02
2022-12-16T03:45:39.245Z,98.45
2022-12-16T03:48:11.632Z,98.20
2022-12-16T03:50:39.752Z,98.56
2022-12-16T03:53:07.717Z,98.70
2022-12-16T03:55:35.557Z,98.72
2022-12-16T03:58:02.648Z,98.75
2022-12-16T04:00:30.017Z,98.47
2022-12-16T04:02:57.573Z,98.29
2022-12-16T04:05:26.693Z,98.28
2022-12-16T04:08:00.238Z,98.38
2022-12-16T04:10:48.002Z,98.41
2022-12-16T04:13:34.097Z,98.06
2022-12-16T04:16:19.948Z,98.08
2022-12-16T04:19:06.720Z,97.86
2022-12-16T04:21:52.857Z,97.92
2022-12-16T04:24:24.673Z,97.68
2022-12-16T04:27:15.326Z,97.67
2022-12-16T04:30:02.427Z,97.87
2022-12-16T04:32:51.661Z,97.94
2022-12-16T04:35:37.242Z,97.90
2022-12-16T04:38:23.946Z,97.97
2022-12-16T04:41:09.653Z,98.23
2022-12-16T04:43:55.615Z,98.08
2022-12-16T04:46:41.505Z,98.28
2022-12-16T04:49:27.448Z,98.59
2022-12-16T04:52:13.081Z,98.61
2022-12-16T04:54:58.885Z,98.98
2022-12-16T04:57:44.792Z,99.05
2022-12-16T05:00:31.384Z,99.52
2022-12-16T05:03:17.027Z,99.86
2022-12-16T05:06:02.520Z,100.00
2022-12-16T05:08:48.458Z,100.00
2022-12-16T05:11:34.017Z,100.00
2022-12-16T05:14:19.496Z,100.00
2022-12-16T05:17:05.120Z,100.00
2022-12-16T05:19:50.859Z,100.00
2022-12-16T05:22:36.486Z,100.00
2022-12-16T05:25:23.127Z,99.63
2022-12-16T05:28:10.189Z,99.22
2022-12-16T05:30:56.400Z,98.91
2022-12-16T05:33:43.179Z,98.49
2022-12-16T05:36:28.713Z,98.28
2022-12-16T05:39:14.373Z,98.28
2022-12-16T05:41:59.746Z,98.05
2022-12-16T05:44:45.453Z,98.22
2022-12-16T05:47:31.212Z,98.04
2022-12-16T05:50:16.803Z,98.09
2022-12-16T05:53:13.893Z,98.44
2022-12-16T05:56:01.664Z,98.89
2022-12-16T05:58:48.189Z,99.40
2022-12-16T06:01:34.180Z,99.72
2022-12-16T06:04:19.841Z,99.92
2022-12-16T06:07:06.076Z,100.00
2022-12-16T06:09:56.636Z,100.00
2022-12-16T06:12:43.106Z,100.00
2022-12-16T06:15:29.870Z,100.00
2022-12-16T06:18:15.617Z,100.00
2022-12-16T06:21:02.156Z,100.00
2022-12-16T06:23:47.783Z,100.00
2022-12-16T06:26:33.555Z,100.00
2022-12-16T06:29:19.102Z,100.00
2022-12-16T06:32:05.031Z,100.00
2022-12-16T06:34:50.977Z,100.00
2022-12-16T06:37:36.584Z,100.00
2022-12-16T06:40:22.777Z,100.00
2022-12-16T06:43:08.364Z,100.00
2022-12-16T06:45:54.341Z,100.00
2022-12-16T06:48:39.687Z,100.00
2022-12-16T06:51:25.438Z,100.00
2022-12-16T06:54:11.467Z,100.00
2022-12-16T06:56:58.245Z,100.00
2022-12-16T06:59:43.916Z,100.00
2022-12-16T07:02:30.148Z,100.00
2022-12-16T07:05:15.806Z,100.00
2022-12-16T07:08:09.486Z,100.00
2022-12-16T07:11:00.343Z,100.00
2022-12-16T07:13:55.886Z,100.00
2022-12-16T07:16:41.700Z,100.00
2022-12-16T07:19:27.463Z,100.00
2022-12-16T07:22:13.163Z,100.00
2022-12-16T07:24:58.851Z,100.00
2022-12-16T07:27:44.739Z,100.00
2022-12-16T07:30:30.891Z,100.00
2022-12-16T07:33:16.650Z,100.00
2022-12-16T07:36:02.318Z,100.00
2022-12-16T07:38:48.109Z,100.00
2022-12-16T07:41:33.982Z,100.00
2022-12-16T07:44:23.195Z,100.00
2022-12-16T07:47:08.956Z,100.00
2022-12-16T07:49:55.435Z,100.00
2022-12-16T07:52:41.907Z,100.00
2022-12-16T07:55:28.060Z,100.00
2022-12-16T07:58:13.811Z,100.00
2022-12-16T08:01:06.287Z,100.00
2022-12-16T08:03:54.660Z,100.00
2022-12-16T08:06:42.255Z,100.00
2022-12-16T08:09:28.024Z,100.00
2022-12-16T08:12:18.376Z,100.00
2022-12-16T08:15:03.771Z,100.00
2022-12-16T08:17:49.376Z,100.00
2022-12-16T08:20:34.937Z,100.00
2022-12-16T08:23:20.942Z,100.00
2022-12-16T08:26:06.580Z,100.00
2022-12-16T08:28:52.678Z,100.00
2022-12-16T08:31:38.389Z,100.00
2022-12-16T08:34:24.437Z,100.00
2022-12-16T08:37:09.978Z,100.00
2022-12-16T08:40:18.043Z,100.00
2022-12-16T08:43:01.490Z,100.00
2022-12-16T08:45:47.350Z,100.00
2022-12-16T08:48:33.211Z,100.00
2022-12-16T08:51:26.390Z,100.00
2022-12-16T08:54:12.040Z,99.80
2022-12-16T08:56:57.843Z,99.31
2022-12-16T08:59:44.567Z,98.83
2022-12-16T09:02:31.281Z,98.43
2022-12-16T09:05:17.130Z,98.20
2022-12-16T09:08:02.895Z,98.45
2022-12-16T09:10:48.543Z,97.87
2022-12-16T09:13:35.298Z,97.66
2022-12-16T09:16:21.793Z,97.66
2022-12-16T09:19:07.397Z,97.83
2022-12-16T09:21:54.828Z,98.09
2022-12-16T09:24:40.827Z,97.93
2022-12-16T09:27:26.259Z,97.35
2022-12-16T09:30:11.815Z,96.80
2022-12-16T09:33:02.531Z,97.26
2022-12-16T09:35:48.582Z,96.52
2022-12-16T09:38:35.981Z,96.57
2022-12-16T09:41:46.725Z,96.50
2022-12-16T09:44:49.248Z,97.23
2022-12-16T09:47:41.231Z,97.67
2022-12-16T09:50:38.329Z,97.80
2022-12-16T09:53:28.392Z,97.87
2022-12-16T09:56:15.450Z,98.09
2022-12-16T09:59:18.543Z,97.74
2022-12-16T10:02:04.748Z,98.10
2022-12-16T10:04:51.051Z,97.72
2022-12-16T10:07:42.135Z,97.51
2022-12-16T10:10:36.403Z,97.81
2022-12-16T10:13:49.699Z,96.76
2022-12-16T10:16:38.519Z,95.98
2022-12-16T10:19:36.043Z,95.73
2022-12-16T10:22:46.531Z,96.05
2022-12-16T10:25:35.361Z,95.45
2022-12-16T10:28:37.487Z,93.52
2022-12-16T10:31:32.250Z,92.33
2022-12-16T10:34:17.767Z,92.06
2022-12-16T10:37:11.681Z,91.83
2022-12-16T10:40:07.850Z,90.97
2022-12-16T10:43:00.366Z,90.56
2022-12-16T10:45:53.744Z,89.22
2022-12-16T10:48:56.735Z,89.26
2022-12-16T10:51:47.049Z,88.77
2022-12-16T10:54:38.744Z,87.62
2022-12-16T10:57:33.783Z,87.23
2022-12-16T11:00:32.856Z,85.89
2022-12-16T11:03:42.797Z,85.62
2022-12-16T11:06:29.671Z,84.95
2022-12-16T11:09:15.340Z,84.80
2022-12-16T11:12:01.452Z,83.58
2022-12-16T11:15:12.708Z,83.70
2022-12-16T11:17:56.071Z,83.95
2022-12-16T11:20:44.259Z,83.46
2022-12-16T11:23:45.160Z,83.40
2022-12-16T11:26:38.448Z,83.43
2022-12-16T11:29:25.620Z,82.58
2022-12-16T11:32:42.661Z,82.70
2022-12-16T11:35:37.739Z,82.29
2022-12-16T11:38:29.684Z,81.52
2022-12-16T11:41:16.847Z,81.17
2022-12-16T11:44:05.992Z,80.76
2022-12-16T11:46:51.920Z,80.94
2022-12-16T11:49:51.967Z,80.20
2022-12-16T11:52:40.569Z,79.93
2022-12-16T11:59:01.270Z,80.61
2022-12-16T12:02:05.963Z,80.27
2022-12-16T12:04:51.452Z,79.67
2022-12-16T12:07:45.809Z,79.68
2022-12-16T12:10:38.174Z,79.67
2022-12-16T12:13:58.877Z,79.61
2022-12-16T12:16:59.313Z,79.45
2022-12-16T12:20:06.390Z,79.41
2022-12-16T12:22:57.514Z,79.27
2022-12-16T12:26:02.244Z,79.41
2022-12-16T12:28:54.269Z,79.35
2022-12-16T12:32:14.940Z,78.98
2022-12-16T12:35:19.850Z,79.45
2022-12-16T12:38:11.028Z,79.35
2022-12-16T12:41:03.829Z,79.76
2022-12-16T12:44:07.164Z,78.98
2022-12-16T12:47:16.653Z,78.94
2022-12-16T12:50:14.136Z,78.62
2022-12-16T12:53:43.061Z,78.03
2022-12-16T12:57:16.158Z,77.90
2022-12-16T13:00:37.181Z,77.16
2022-12-16T13:03:55.973Z,77.48
2022-12-16T13:06:42.699Z,76.82
2022-12-16T13:09:48.297Z,77.13
2022-12-16T13:12:34.282Z,77.37
2022-12-16T13:15:25.639Z,77.22
2022-12-16T13:18:20.460Z,77.07
2022-12-16T13:21:06.571Z,76.47
2022-12-16T13:23:57.780Z,76.10
2022-12-16T13:26:45.994Z,77.03
2022-12-16T13:29:46.895Z,76.87
2022-12-16T13:32:38.521Z,76.89
2022-12-16T13:35:27.122Z,76.67
2022-12-16T13:38:14.377Z,77.02
2022-12-16T13:41:17.197Z,76.71
2022-12-16T13:44:21.790Z,76.80
2022-12-16T13:47:13.350Z,77.37
2022-12-16T13:50:05.741Z,77.42
2022-12-16T13:53:07.351Z,77.96
2022-12-16T13:56:05.121Z,78.28
2022-12-16T13:59:12.987Z,78.17
2022-12-16T14:02:31.274Z,78.22
2022-12-16T14:05:17.575Z,78.51
2022-12-16T14:08:03.907Z,78.99
2022-12-16T14:10:53.300Z,79.45
2022-12-16T14:13:47.601Z,79.65
2022-12-16T14:17:02.642Z,80.05
2022-12-16T14:19:53.625Z,80.50
2022-12-16T14:22:54.811Z,80.24
2022-12-16T14:25:42.138Z,80.68
2022-12-16T14:28:55.017Z,81.19
2022-12-16T14:31:49.130Z,81.25
2022-12-16T14:35:04.619Z,81.47
2022-12-16T14:37:55.947Z,82.26
2022-12-16T14:40:43.241Z,82.37
2022-12-16T14:43:35.524Z,83.09
2022-12-16T14:46:22.212Z,83.83
2022-12-16T14:49:09.570Z,83.94
2022-12-16T14:52:06.400Z,84.24
2022-12-16T14:54:57.990Z,84.67
2022-12-16T14:57:46.117Z,84.94
2022-12-16T15:00:42.471Z,85.17
2022-12-16T15:03:48.355Z,85.71
2022-12-16T15:07:02.043Z,86.05
2022-12-16T15:09:55.893Z,85.72
2022-12-16T15:12:48.187Z,85.97
2022-12-16T15:15:49.743Z,86.44
2022-12-16T15:18:40.554Z,86.77
2022-12-16T15:21:27.170Z,87.19
2022-12-16T15:24:13.265Z,88.23
2022-12-16T15:26:59.341Z,88.52
2022-12-16T15:29:53.309Z,88.45
2022-12-16T15:32:44.684Z,88.47
2022-12-16T15:35:50.030Z,88.49
2022-12-16T15:38:54.310Z,88.97
2022-12-16T15:41:50.133Z,89.69
2022-12-16T15:44:41.734Z,90.18
2022-12-16T15:47:53.230Z,90.12
2022-12-16T15:50:47.129Z,90.04
2022-12-16T15:53:55.179Z,89.87
2022-12-16T15:56:46.480Z,89.93
2022-12-16T15:59:50.342Z,89.63
2022-12-16T16:02:41.316Z,89.54
2022-12-16T16:05:39.719Z,89.65
2022-12-16T16:08:25.833Z,89.52
2022-12-16T16:11:11.732Z,89.44
2022-12-16T16:14:02.924Z,89.58
2022-12-16T16:16:51.880Z,90.20
2022-12-16T16:19:43.104Z,89.97
2022-12-16T16:22:34.203Z,89.32
2022-12-16T16:25:20.399Z,89.36
2022-12-16T16:28:06.246Z,89.23
2022-12-16T16:30:51.894Z,89.22
2022-12-16T16:33:37.791Z,89.58
2022-12-16T16:36:34.356Z,90.39
2022-12-16T16:39:20.398Z,90.68
2022-12-16T16:42:06.069Z,90.66
2022-12-16T16:44:51.641Z,91.01
2022-12-16T16:47:37.920Z,91.20
2022-12-16T16:50:25.503Z,91.40
2022-12-16T16:53:11.676Z,91.66
2022-12-16T16:55:57.983Z,91.77
2022-12-16T16:58:50.286Z,91.87
2022-12-16T17:01:37.350Z,92.02
2022-12-16T17:04:23.405Z,91.86
2022-12-16T17:07:09.039Z,91.92
2022-12-16T17:12:53.906Z,92.75
2022-12-16T17:15:54.412Z,93.62
2022-12-16T17:18:46.589Z,93.84
2022-12-16T17:21:33.253Z,94.00
2022-12-16T17:24:19.150Z,94.04
2022-12-16T17:27:09.118Z,94.99
2022-12-16T17:29:55.906Z,95.21
2022-12-16T17:32:49.087Z,95.18
2022-12-16T17:35:36.175Z,95.11
2022-12-16T17:38:22.101Z,95.30
2022-12-16T17:41:11.082Z,95.68
2022-12-16T17:43:58.765Z,96.20
2022-12-16T17:46:44.229Z,96.26
2022-12-16T17:49:30.291Z,96.04
2022-12-16T17:52:17.150Z,95.97
2022-12-16T17:55:02.721Z,96.26
2022-12-16T17:57:49.013Z,96.67
2022-12-16T18:00:35.420Z,96.55
2022-12-16T18:03:22.466Z,97.14
2022-12-16T18:06:15.542Z,97.04
2022-12-16T18:09:01.156Z,97.23
2022-12-16T18:11:46.903Z,97.35
2022-12-16T18:14:32.485Z,97.30
2022-12-16T18:17:18.216Z,96.65
2022-12-16T18:20:04.095Z,96.92
2022-12-16T18:22:50.102Z,96.97
2022-12-16T18:25:35.949Z,96.73
2022-12-16T18:28:22.330Z,97.06
2022-12-16T18:31:07.964Z,97.88
2022-12-16T18:33:53.653Z,97.59
2022-12-16T18:36:39.487Z,97.61
2022-12-16T18:39:25.013Z,97.62
2022-12-16T18:42:10.910Z,97.08
2022-12-16T18:45:01.019Z,97.65
2022-12-16T18:47:49.402Z,97.82
2022-12-16T18:50:37.974Z,97.46
2022-12-16T18:53:27.767Z,97.35
2022-12-16T18:56:21.176Z,96.90
2022-12-16T18:59:07.041Z,97.21
2022-12-16T19:01:57.422Z,97.09
2022-12-16T19:04:43.617Z,97.11
2022-12-16T19:07:33.378Z,97.38
2022-12-16T19:10:19.623Z,97.86
2022-12-16T19:13:05.048Z,98.34
2022-12-16T19:15:51.262Z,98.67
2022-12-16T19:18:37.427Z,98.69
2022-12-16T19:21:23.433Z,98.42
2022-12-16T19:24:09.374Z,97.74
2022-12-16T19:26:56.558Z,97.76
2022-12-16T19:29:43.061Z,97.34
2022-12-16T19:32:28.971Z,97.39
2022-12-16T19:35:14.661Z,97.37
2022-12-16T19:38:00.692Z,97.58
2022-12-16T19:41:12.575Z,97.78
2022-12-16T19:44:03.626Z,98.28
2022-12-16T19:46:51.725Z,98.71
2022-12-16T19:49:43.786Z,99.18
2022-12-16T19:52:30.120Z,99.49
2022-12-16T19:58:20.892Z,99.84
2022-12-16T20:01:06.873Z,100.00
2022-12-16T20:03:55.251Z,100.00
2022-12-16T20:06:42.394Z,100.00
2022-12-16T20:09:28.103Z,100.00
2022-12-16T20:12:16.224Z,100.00
2022-12-16T20:15:01.468Z,100.00
2022-12-16T20:17:50.458Z,99.98
2022-12-16T20:20:38.004Z,99.46
2022-12-16T20:23:23.677Z,99.19
2022-12-16T20:26:17.423Z,99.09
2022-12-16T20:29:03.671Z,99.41
2022-12-16T20:31:52.521Z,99.91
2022-12-16T20:34:41.454Z,99.30
2022-12-16T20:37:27.122Z,99.00
2022-12-16T20:40:13.470Z,99.02
2022-12-16T20:42:59.036Z,98.71
2022-12-16T20:45:44.680Z,98.44
2022-12-16T20:48:35.138Z,98.46
2022-12-16T20:51:26.546Z,98.28
2022-12-16T20:54:13.196Z,98.22
2022-12-16T20:56:59.657Z,98.36
2022-12-16T20:59:45.305Z,98.59
2022-12-16T21:02:34.103Z,99.28
2022-12-16T21:05:21.276Z,99.44
2022-12-16T21:08:06.843Z,99.39
2022-12-16T21:10:52.451Z,99.18
2022-12-16T21:13:41.737Z,99.31
2022-12-16T21:16:30.329Z,99.87
2022-12-16T21:19:16.387Z,100.00
2022-12-16T21:22:02.063Z,100.00
2022-12-16T21:24:47.542Z,100.00
2022-12-16T21:27:33.193Z,100.00
2022-12-16T21:30:18.710Z,100.00
2022-12-16T21:33:04.822Z,100.00
2022-12-16T21:35:50.864Z,100.00
2022-12-16T21:38:37.948Z,100.00
2022-12-16T21:41:24.098Z,100.00
2022-12-16T21:44:10.648Z,100.00
2022-12-16T21:46:56.046Z,100.00
2022-12-16T21:49:42.298Z,100.00
2022-12-16T21:52:27.913Z,100.00
2022-12-16T21:55:14.372Z,100.00
2022-12-16T21:58:05.578Z,100.00
2022-12-16T22:00:58.860Z,100.00
2022-12-16T22:03:52.299Z,99.95
2022-12-16T22:06:38.437Z,100.00
2022-12-16T22:09:24.090Z,100.00
2022-12-16T22:12:10.632Z,100.00
2022-12-16T22:14:56.588Z,100.00
2022-12-16T22:18:02.343Z,100.00
2022-12-16T22:20:47.775Z,100.00
2022-12-16T22:23:34.225Z,100.00
2022-12-16T22:26:20.810Z,100.00
2022-12-16T22:29:06.463Z,100.00
2022-12-16T22:31:52.263Z,100.00
2022-12-16T22:34:38.048Z,100.00
2022-12-16T22:36:20.429Z,99.56
2022-12-16T22:37:23.819Z,100.00
2022-12-16T22:40:09.125Z,100.00
2022-12-16T22:42:56.300Z,100.00
2022-12-16T22:45:42.104Z,100.00
2022-12-16T22:48:31.440Z,100.00
2022-12-16T22:51:16.855Z,100.00
2022-12-16T22:54:06.910Z,100.00
2022-12-16T22:56:52.669Z,100.00
2022-12-16T22:59:42.142Z,100.00
2022-12-16T23:02:28.307Z,100.00
2022-12-16T23:05:13.796Z,100.00
2022-12-16T23:07:59.445Z,100.00
2022-12-16T23:10:45.642Z,100.00
2022-12-16T23:13:32.219Z,100.00
2022-12-16T23:16:17.712Z,100.00
2022-12-16T23:19:03.563Z,100.00
2022-12-16T23:21:49.031Z,100.00
2022-12-16T23:24:34.661Z,100.00
2022-12-16T23:27:20.379Z,100.00
2022-12-16T23:30:06.006Z,100.00
2022-12-16T23:32:51.353Z,100.00
2022-12-16T23:35:39.148Z,100.00
2022-12-16T23:38:25.593Z,100.00
2022-12-16T23:41:15.564Z,100.00
2022-12-16T23:44:01.632Z,100.00
2022-12-16T23:46:47.899Z,100.00
2022-12-16T23:49:33.697Z,100.00
2022-12-16T23:52:19.547Z,100.00
2022-12-16T23:55:05.058Z,100.00
2022-12-16T23:57:50.624Z,100.00
